»·PEaware :: VOI36 KASE-KABQ

VOI36 :: KASE-KABQ

FLIGHT INFORMATION

Flight Status: Arrived
Operator: Volaris
More flights by this operator :: More flights under this callsign
Pilot: William H. (1753)
Aircraft: AIRBUS A320
(A320)
More flights by this aircraft type
Origin: KASE Aspen-Pitkin Co/Sardy
United States
Destination: KABQ Albuquerque Intl Sunport
United States
More flights between these airports :: More routes between these airports
Route: +LINDZ8 LINDZ HBU DATME SNDIA3
File this flight plan on PilotEdge
Remarks: PBN / A1B1C1D1O1S1
Altitude:
(Current/Filed)
35,000ft
Speed:
(Current/Filed)
457kts
Departed: 02-Dec-17 02:36 PM
Arrived: 02-Dec-17 03:42 PM
Distance/Time
Traveled:
251nm/1:06
Distance/Time
To Go:
Arrived

Flight Plot

Page will automatically refresh every two minutes.

Flight plan parsing failed; only flown route is shown


Map Options




Map Legend


Flown Route
Filed Route
Departure Airport
Arrival Airport
Navaid (VOR, NDB)
Fix

Horizontal Profiles

Position Reports

Time Latitude Longitude Heading Altitude Ground
Speed
02-Dec-17 14:20 39.219833 -106.865348 161 7775ft 0kts
02-Dec-17 14:21 39.219833 -106.865348 161 7775ft 0kts
02-Dec-17 14:22 39.219833 -106.865348 161 7775ft 0kts
02-Dec-17 14:23 39.219833 -106.865348 161 7775ft 0kts
02-Dec-17 14:24 39.219833 -106.865348 161 7775ft 0kts
02-Dec-17 14:25 39.219833 -106.865348 161 7775ft 0kts
02-Dec-17 14:26 39.219833 -106.865348 161 7775ft 0kts
02-Dec-17 14:27 39.219833 -106.865349 161 7775ft 0kts
02-Dec-17 14:28 39.220081 -106.865498 156 7774ft 2kts
02-Dec-17 14:29 39.220257 -106.865491 225 7772ft 0kts
02-Dec-17 14:30 39.220257 -106.865491 225 7772ft 0kts
02-Dec-17 14:31 39.220257 -106.865492 225 7772ft 0kts
02-Dec-17 14:32 39.220257 -106.865492 225 7772ft 0kts
02-Dec-17 14:33 39.220257 -106.865492 225 7772ft 0kts
02-Dec-17 14:34 39.220257 -106.865492 225 7772ft 0kts
02-Dec-17 14:35 39.220257 -106.865492 225 7772ft 0kts
02-Dec-17 14:36 39.220257 -106.865492 225 7772ft 0kts
02-Dec-17 14:37 39.220257 -106.865492 225 7772ft 0kts
02-Dec-17 14:38 39.217052 -106.864785 162 7796ft 19kts
02-Dec-17 14:39 39.214403 -106.863477 161 7811ft 13kts
02-Dec-17 14:40 39.212624 -106.862654 159 7841ft 13kts
02-Dec-17 14:41 39.213687 -106.864355 337 7815ft 82kts
02-Dec-17 14:42 39.247781 -106.872553 345 9719ft 214kts
02-Dec-17 14:43 39.274925 -106.923499 282 13410ft 239kts
02-Dec-17 14:44 39.292196 -106.995648 282 16397ft 291kts
02-Dec-17 14:45 39.322779 -107.074193 299 18029ft 363kts
02-Dec-17 14:46 39.336101 -107.165497 252 19940ft 360kts
02-Dec-17 14:47 39.287098 -107.238325 205 21290ft 363kts
02-Dec-17 14:48 39.205525 -107.225914 153 23024ft 415kts
02-Dec-17 14:49 39.131769 -107.156921 151 24844ft 431kts
02-Dec-17 14:50 39.050470 -107.114839 181 26330ft 415kts
02-Dec-17 14:51 38.960103 -107.103663 181 27793ft 425kts
02-Dec-17 14:52 38.854354 -107.090205 180 29333ft 437kts
02-Dec-17 14:53 38.742368 -107.076065 181 30852ft 445kts
02-Dec-17 14:54 38.647788 -107.064136 181 32558ft 438kts
02-Dec-17 14:55 38.550524 -107.051968 182 34064ft 436kts
02-Dec-17 14:56 38.456631 -107.038388 175 35255ft 442kts
02-Dec-17 14:57 38.364661 -106.993540 165 35304ft 449kts
02-Dec-17 14:58 38.270124 -106.943462 165 35306ft 452kts
02-Dec-17 14:59 38.177361 -106.894573 165 35311ft 453kts
02-Dec-17 15:00 38.088558 -106.847911 165 35322ft 455kts
02-Dec-17 15:01 37.998851 -106.800818 165 35309ft 439kts
02-Dec-17 15:02 37.915367 -106.757291 165 35325ft 455kts
02-Dec-17 15:03 37.834903 -106.715307 165 35349ft 454kts
02-Dec-17 15:04 37.746935 -106.669535 165 35373ft 454kts
02-Dec-17 15:05 37.659982 -106.624416 165 35365ft 454kts
02-Dec-17 15:06 37.570310 -106.578008 165 35359ft 454kts
02-Dec-17 15:07 37.481968 -106.532400 165 35358ft 454kts
02-Dec-17 15:08 37.394656 -106.487399 165 35357ft 454kts
02-Dec-17 15:09 37.305419 -106.441699 165 35351ft 454kts
02-Dec-17 15:10 37.217494 -106.396654 165 35346ft 454kts
02-Dec-17 15:11 37.128044 -106.350935 165 35344ft 454kts
02-Dec-17 15:12 37.044682 -106.308429 165 35352ft 451kts
02-Dec-17 15:13 36.962656 -106.266707 165 35371ft 447kts
02-Dec-17 15:14 36.879657 -106.224577 165 33874ft 443kts
02-Dec-17 15:15 36.793996 -106.181281 164 31306ft 453kts
02-Dec-17 15:16 36.703581 -106.138250 172 29438ft 455kts
02-Dec-17 15:17 36.608405 -106.141228 202 29355ft 438kts
02-Dec-17 15:18 36.521986 -106.179314 204 27738ft 434kts
02-Dec-17 15:19 36.433728 -106.218656 204 26367ft 453kts
02-Dec-17 15:20 36.342259 -106.259165 203 24973ft 450kts
02-Dec-17 15:21 36.248388 -106.300576 203 24350ft 461kts
02-Dec-17 15:22 36.155248 -106.341493 203 24346ft 453kts
02-Dec-17 15:23 36.072614 -106.377315 203 24350ft 390kts
02-Dec-17 15:24 35.997795 -106.409583 204 24338ft 368kts
02-Dec-17 15:25 35.925756 -106.440685 204 23837ft 362kts
02-Dec-17 15:26 35.862860 -106.466864 203 22980ft 339kts
02-Dec-17 15:27 35.797808 -106.493383 203 21515ft 333kts
02-Dec-17 15:28 35.733607 -106.519565 202 20050ft 329kts
02-Dec-17 15:29 35.667443 -106.546503 202 18553ft 324kts
02-Dec-17 15:30 35.603385 -106.572545 202 17113ft 319kts
02-Dec-17 15:31 35.547287 -106.601521 207 15812ft 313kts
02-Dec-17 15:32 35.488451 -106.632381 201 14444ft 310kts
02-Dec-17 15:33 35.431903 -106.664697 204 13197ft 302kts
02-Dec-17 15:34 35.375561 -106.694326 204 12277ft 286kts
02-Dec-17 15:35 35.324261 -106.721642 205 11709ft 264kts
02-Dec-17 15:36 35.279131 -106.717842 134 11245ft 253kts
02-Dec-17 15:37 35.257291 -106.674100 120 10838ft 241kts
02-Dec-17 15:38 35.236966 -106.630405 120 10230ft 239kts
02-Dec-17 15:39 35.212680 -106.593013 154 9602ft 234kts
02-Dec-17 15:40 35.178962 -106.571941 154 9123ft 228kts
02-Dec-17 15:41 35.143635 -106.549821 154 8551ft 225kts
02-Dec-17 15:42 35.108640 -106.527917 154 8026ft 211kts
02-Dec-17 15:43 35.072657 -106.506857 170 6894ft 202kts
02-Dec-17 15:44 35.045063 -106.527796 249 6118ft 159kts
02-Dec-17 15:45 35.044320 -106.559757 266 5638ft 144kts
02-Dec-17 15:46 35.044133 -106.585151 269 5336ft 84kts
02-Dec-17 15:47 35.044248 -106.591406 269 5331ft 1kts
02-Dec-17 15:48 35.044475 -106.597208 293 5326ft 36kts
02-Dec-17 15:49 35.045741 -106.602696 269 5324ft 28kts
02-Dec-17 15:50 35.045783 -106.609306 270 5321ft 33kts
02-Dec-17 15:51 35.045756 -106.613815 263 5318ft 31kts
02-Dec-17 15:52 35.046487 -106.616005 12 5316ft 10kts
02-Dec-17 15:53 35.046890 -106.615885 9 5316ft 0kts
02-Dec-17 15:54 35.046890 -106.615885 9 5316ft 0kts
02-Dec-17 15:55 35.046890 -106.615885 9 5316ft 0kts
02-Dec-17 15:56 35.046890 -106.615885 9 5316ft 0kts

Navigation Log

Ident Type
Flight plan parsing failed, navigation log unavailable